Terminal Aerodrome Forecast
Issued by NWS

Home | Current Version | Previous Version | Text Only | Print | Product List | Glossary On
Versions: 1 2 3 4 5 6 7 8 9 10 11 12 13 14 15 16 17 18 19 20 21 22 23 24 25 26 27 28
681
FTUS45 KPSR 271720
TAFIWA
TAF
KIWA 271720Z 2718/2818 16006KT P6SM FEW090 BKN200
     FM271900 24010KT P6SM FEW090 SCT200
      TEMPO 2722/2802 24014G21KT
     FM280200 30007KT P6SM FEW090
     FM280700 27005KT P6SM SKC=

USA.gov is the U.S. government's official web portal to all federal, state and local government web resources and services.